createdAt,value
2023-03-10T00:00:10.223Z,7.80
2023-03-10T00:02:36.803Z,7.80
2023-03-10T00:05:03.400Z,7.80
2023-03-10T00:07:29.992Z,7.80
2023-03-10T00:09:56.585Z,7.80
2023-03-10T00:12:23.200Z,8.00
2023-03-10T00:14:49.787Z,7.90
2023-03-10T00:17:16.348Z,7.90
2023-03-10T00:19:43.063Z,7.90
2023-03-10T00:22:09.624Z,7.40
2023-03-10T00:24:36.240Z,7.10
2023-03-10T00:27:02.864Z,7.10
2023-03-10T00:29:29.465Z,7.00
2023-03-10T00:31:56.028Z,7.10
2023-03-10T00:34:22.663Z,7.30
2023-03-10T00:36:49.227Z,7.30
2023-03-10T00:39:15.877Z,7.20
2023-03-10T00:41:42.510Z,7.40
2023-03-10T00:44:09.096Z,7.10
2023-03-10T00:46:35.685Z,6.70
2023-03-10T00:49:02.339Z,6.20
2023-03-10T00:51:28.913Z,6.40
2023-03-10T00:53:55.492Z,6.70
2023-03-10T00:56:23.959Z,6.60
2023-03-10T00:58:50.556Z,6.40
2023-03-10T01:01:17.181Z,6.70
2023-03-10T01:03:46.620Z,6.80
2023-03-10T01:06:13.378Z,6.80
2023-03-10T01:08:39.961Z,7.00
2023-03-10T01:11:06.520Z,6.90
2023-03-10T01:13:33.105Z,7.00
2023-03-10T01:15:59.688Z,7.00
2023-03-10T01:18:26.282Z,7.20
2023-03-10T01:20:52.859Z,7.30
2023-03-10T01:23:19.521Z,7.00
2023-03-10T01:25:46.189Z,6.80
2023-03-10T01:28:12.774Z,6.60
2023-03-10T01:30:40.101Z,6.70
2023-03-10T01:33:06.754Z,6.70
2023-03-10T01:35:33.363Z,6.60
2023-03-10T01:37:59.972Z,6.40
2023-03-10T01:40:26.599Z,6.00
2023-03-10T01:42:53.172Z,6.20
2023-03-10T01:45:19.760Z,6.00
2023-03-10T01:47:46.355Z,6.30
2023-03-10T01:50:12.974Z,6.40
2023-03-10T01:52:39.531Z,6.60
2023-03-10T01:55:06.160Z,6.50
2023-03-10T01:57:32.759Z,6.70
2023-03-10T01:59:59.668Z,6.40
2023-03-10T02:02:26.305Z,6.60
2023-03-10T02:04:52.913Z,6.80
2023-03-10T02:07:19.518Z,6.80
2023-03-10T02:09:46.105Z,6.30
2023-03-10T02:12:12.675Z,6.10
2023-03-10T02:14:39.267Z,6.20
2023-03-10T02:17:05.839Z,6.50
2023-03-10T02:19:32.444Z,6.20
2023-03-10T02:21:58.998Z,6.10
2023-03-10T02:24:25.553Z,5.90
2023-03-10T02:26:52.343Z,5.90
2023-03-10T02:29:18.931Z,6.20
2023-03-10T02:31:45.574Z,6.20
2023-03-10T02:34:12.194Z,6.40
2023-03-10T02:36:38.780Z,6.50
2023-03-10T02:39:05.384Z,6.20
2023-03-10T02:41:31.938Z,6.40
2023-03-10T02:43:58.487Z,6.70
2023-03-10T02:46:25.087Z,6.90
2023-03-10T02:48:51.683Z,7.00
2023-03-10T02:51:18.292Z,6.90
2023-03-10T02:53:44.879Z,7.00
2023-03-10T02:56:11.455Z,6.90
2023-03-10T02:58:38.061Z,7.10
2023-03-10T03:01:04.696Z,6.60
2023-03-10T03:03:31.313Z,6.70
2023-03-10T03:05:57.930Z,6.80
2023-03-10T03:08:24.555Z,6.90
2023-03-10T03:10:51.143Z,7.00
2023-03-10T03:13:17.735Z,7.00
2023-03-10T03:15:44.374Z,6.90
2023-03-10T03:18:10.982Z,6.80
2023-03-10T03:20:37.742Z,6.80
2023-03-10T03:23:04.297Z,6.70
2023-03-10T03:25:30.875Z,6.50
2023-03-10T03:27:57.465Z,6.60
2023-03-10T03:30:24.027Z,6.00
2023-03-10T03:32:50.631Z,5.90
2023-03-10T03:35:17.218Z,6.20
2023-03-10T03:37:43.789Z,6.30
2023-03-10T03:40:10.404Z,6.40
2023-03-10T03:42:36.992Z,6.50
2023-03-10T03:45:03.591Z,6.10
2023-03-10T03:47:30.175Z,5.90
2023-03-10T03:49:56.747Z,6.10
2023-03-10T03:52:23.349Z,6.00
2023-03-10T03:54:49.926Z,6.10
2023-03-10T03:57:16.946Z,6.20
2023-03-10T03:59:43.894Z,6.20
2023-03-10T04:02:10.660Z,6.20
2023-03-10T04:04:37.317Z,5.90
2023-03-10T04:07:03.888Z,5.90
2023-03-10T04:09:30.667Z,5.80
2023-03-10T04:11:57.229Z,6.00
2023-03-10T04:14:23.850Z,5.90
2023-03-10T04:16:50.427Z,5.90
2023-03-10T04:19:17.036Z,6.00
2023-03-10T04:21:43.647Z,5.10
2023-03-10T04:24:10.229Z,4.70
2023-03-10T04:26:36.795Z,4.70
2023-03-10T04:29:03.411Z,4.80
2023-03-10T04:31:30.133Z,5.20
2023-03-10T04:33:56.743Z,5.40
2023-03-10T04:36:23.400Z,5.10
2023-03-10T04:38:50.004Z,5.40
2023-03-10T04:41:16.589Z,5.60
2023-03-10T04:43:45.096Z,5.70
2023-03-10T04:46:13.767Z,5.90
2023-03-10T04:48:42.731Z,5.80
2023-03-10T04:51:09.319Z,5.80
2023-03-10T04:53:35.902Z,5.60
2023-03-10T04:56:02.486Z,5.70
2023-03-10T04:58:29.083Z,5.80
2023-03-10T05:01:03.308Z,5.90
2023-03-10T05:03:30.238Z,5.80
2023-03-10T05:05:56.868Z,5.60
2023-03-10T05:08:23.496Z,5.70
2023-03-10T05:10:50.091Z,5.80
2023-03-10T05:13:16.687Z,5.70
2023-03-10T05:15:43.344Z,5.80
2023-03-10T05:18:10.133Z,5.90
2023-03-10T05:20:36.893Z,5.90
2023-03-10T05:23:03.487Z,5.90
2023-03-10T05:25:30.117Z,5.90
2023-03-10T05:27:56.876Z,5.90
2023-03-10T05:30:23.590Z,5.80
2023-03-10T05:32:50.266Z,5.60
2023-03-10T05:35:16.954Z,5.70
2023-03-10T05:37:43.559Z,5.70
2023-03-10T05:40:10.149Z,5.50
2023-03-10T05:42:36.744Z,5.50
2023-03-10T05:45:03.370Z,5.30
2023-03-10T05:47:29.973Z,5.50
2023-03-10T05:49:56.566Z,5.60
2023-03-10T05:52:23.188Z,5.70
2023-03-10T05:54:49.788Z,5.80
2023-03-10T05:57:16.349Z,5.80
2023-03-10T05:59:43.154Z,5.70
2023-03-10T06:02:09.750Z,5.90
2023-03-10T06:04:36.376Z,5.90
2023-03-10T06:07:03.060Z,5.90
2023-03-10T06:09:29.662Z,6.10
2023-03-10T06:11:56.245Z,5.70
2023-03-10T06:14:22.858Z,5.80
2023-03-10T06:16:49.502Z,5.70
2023-03-10T06:19:16.156Z,6.00
2023-03-10T06:21:42.808Z,6.20
2023-03-10T06:24:09.390Z,6.20
2023-03-10T06:26:35.986Z,6.30
2023-03-10T06:29:02.746Z,6.50
2023-03-10T06:31:29.432Z,6.90
2023-03-10T06:33:56.037Z,6.90
2023-03-10T06:36:22.806Z,7.30
2023-03-10T06:38:49.392Z,7.40
2023-03-10T06:41:16.072Z,7.60
2023-03-10T06:43:42.694Z,7.50
2023-03-10T06:46:09.404Z,7.70
2023-03-10T06:48:36.082Z,7.80
2023-03-10T06:51:02.691Z,7.50
2023-03-10T06:53:29.327Z,7.60
2023-03-10T06:55:56.034Z,7.90
2023-03-10T06:58:22.629Z,8.10
2023-03-10T07:00:49.244Z,8.10
2023-03-10T07:03:16.055Z,8.20
2023-03-10T07:05:42.691Z,8.20
2023-03-10T07:08:09.270Z,8.50
2023-03-10T07:10:35.864Z,8.60
2023-03-10T07:13:02.558Z,8.70
2023-03-10T07:15:29.165Z,9.00
2023-03-10T07:17:55.785Z,9.30
2023-03-10T07:20:22.460Z,9.40
2023-03-10T07:22:49.034Z,9.40
2023-03-10T07:25:15.616Z,9.20
2023-03-10T07:27:42.200Z,9.20
2023-03-10T07:30:08.804Z,9.40
2023-03-10T07:32:35.470Z,9.60
2023-03-10T07:35:02.168Z,9.50
2023-03-10T07:37:28.747Z,9.60
2023-03-10T07:39:55.392Z,10.00
2023-03-10T07:42:21.985Z,10.10
2023-03-10T07:44:48.651Z,9.60
2023-03-10T07:47:15.243Z,9.70
2023-03-10T07:49:42.049Z,10.10
2023-03-10T07:52:08.653Z,10.30
2023-03-10T07:54:35.355Z,10.50
2023-03-10T07:57:02.039Z,10.10
2023-03-10T07:59:28.716Z,10.20
2023-03-10T08:01:55.278Z,10.40
2023-03-10T08:04:21.977Z,10.50
2023-03-10T08:06:48.639Z,10.70
2023-03-10T08:09:15.210Z,11.10
2023-03-10T08:11:41.799Z,11.20
2023-03-10T08:14:08.607Z,11.20
2023-03-10T08:16:35.653Z,11.30
2023-03-10T08:19:02.292Z,11.10
2023-03-10T08:21:28.869Z,11.10
2023-03-10T08:23:55.628Z,11.30
2023-03-10T08:26:22.195Z,11.10
2023-03-10T08:28:48.774Z,11.40
2023-03-10T08:31:15.400Z,11.60
2023-03-10T08:33:42.408Z,11.90
2023-03-10T08:36:09.147Z,12.20
2023-03-10T08:38:36.485Z,12.20
2023-03-10T08:41:03.207Z,12.20
2023-03-10T08:43:29.816Z,12.30
2023-03-10T08:45:56.468Z,12.60
2023-03-10T08:48:23.053Z,12.80
2023-03-10T08:50:49.871Z,13.10
2023-03-10T08:53:16.488Z,13.50
2023-03-10T08:55:43.126Z,13.90
2023-03-10T08:58:09.680Z,13.70
2023-03-10T09:00:36.272Z,13.80
2023-03-10T09:03:02.966Z,14.10
2023-03-10T09:05:29.576Z,14.40
2023-03-10T09:07:56.147Z,14.60
2023-03-10T09:10:22.731Z,14.70
2023-03-10T09:12:49.295Z,14.00
2023-03-10T09:15:15.912Z,14.30
2023-03-10T09:17:42.473Z,14.30
2023-03-10T09:20:09.086Z,14.60
2023-03-10T09:22:35.671Z,14.90
2023-03-10T09:25:02.283Z,14.90
2023-03-10T09:27:28.841Z,15.10
2023-03-10T09:29:55.749Z,14.90
2023-03-10T09:32:23.059Z,14.80
2023-03-10T09:34:51.745Z,15.10
2023-03-10T09:37:18.437Z,15.00
2023-03-10T09:39:45.044Z,15.20
2023-03-10T09:42:11.984Z,15.10
2023-03-10T09:44:39.808Z,15.00
2023-03-10T09:47:06.396Z,15.40
2023-03-10T09:49:32.984Z,15.70
2023-03-10T09:51:59.615Z,15.90
2023-03-10T09:54:26.200Z,16.00
2023-03-10T09:56:55.459Z,15.30
2023-03-10T09:59:22.196Z,15.20
2023-03-10T10:01:48.826Z,15.50
2023-03-10T10:04:15.533Z,15.70
2023-03-10T10:06:42.201Z,15.80
2023-03-10T10:09:08.772Z,16.10
2023-03-10T10:11:35.391Z,16.20
2023-03-10T10:14:01.988Z,16.20
2023-03-10T10:16:34.494Z,15.90
2023-03-10T10:19:01.666Z,16.20
2023-03-10T10:21:33.608Z,16.30
2023-03-10T10:24:07.035Z,16.20
2023-03-10T10:26:33.602Z,16.20
2023-03-10T10:29:00.229Z,16.40
2023-03-10T10:31:26.918Z,16.50
2023-03-10T10:33:53.570Z,16.90
2023-03-10T10:36:20.181Z,17.00
2023-03-10T10:38:46.788Z,16.50
2023-03-10T10:41:13.388Z,16.30
2023-03-10T10:43:39.996Z,16.60
2023-03-10T10:46:06.686Z,16.70
2023-03-10T10:48:33.342Z,17.00
2023-03-10T10:51:00.114Z,17.30
2023-03-10T10:53:28.788Z,17.40
2023-03-10T10:55:55.437Z,17.30
2023-03-10T10:58:21.996Z,17.30
2023-03-10T11:00:48.592Z,17.20
2023-03-10T11:03:15.163Z,17.40
2023-03-10T11:05:41.787Z,18.00
2023-03-10T11:08:08.387Z,18.40
2023-03-10T11:10:34.972Z,18.40
2023-03-10T11:13:01.569Z,18.70
2023-03-10T11:15:28.284Z,18.30
2023-03-10T11:17:55.055Z,18.10
2023-03-10T11:20:21.647Z,17.80
2023-03-10T11:22:48.233Z,17.20
2023-03-10T11:25:14.837Z,17.30
2023-03-10T11:27:41.409Z,17.80
2023-03-10T11:30:08.038Z,18.40
2023-03-10T11:32:34.670Z,18.20
2023-03-10T11:35:01.273Z,18.30
2023-03-10T11:37:27.847Z,17.80
2023-03-10T11:39:54.450Z,17.80
2023-03-10T11:42:21.068Z,17.50
2023-03-10T11:44:47.646Z,17.40
2023-03-10T11:47:14.224Z,17.50
2023-03-10T11:49:40.859Z,17.40
2023-03-10T11:52:07.447Z,17.30
2023-03-10T11:54:34.195Z,17.40
2023-03-10T11:57:00.796Z,17.50
2023-03-10T11:59:27.375Z,18.00
2023-03-10T12:01:54.076Z,18.00
2023-03-10T12:04:20.677Z,18.00
2023-03-10T12:06:47.309Z,18.30
2023-03-10T12:09:13.900Z,18.30
2023-03-10T12:11:40.503Z,18.10
2023-03-10T12:14:07.112Z,17.80
2023-03-10T12:16:33.769Z,17.90
2023-03-10T12:19:00.347Z,18.00
2023-03-10T12:21:27.343Z,18.20
2023-03-10T12:23:54.006Z,18.20
2023-03-10T12:26:20.655Z,18.40
2023-03-10T12:28:47.221Z,18.50
2023-03-10T12:31:13.804Z,18.50
2023-03-10T12:33:40.411Z,18.60
2023-03-10T12:36:07.049Z,18.60
2023-03-10T12:38:33.638Z,18.50
2023-03-10T12:41:00.225Z,18.30
2023-03-10T12:43:26.811Z,18.00
2023-03-10T12:45:53.406Z,18.20
2023-03-10T12:48:20.068Z,18.60
2023-03-10T12:50:46.855Z,18.80
2023-03-10T12:53:13.426Z,18.60
2023-03-10T12:55:40.029Z,18.60
2023-03-10T12:58:06.651Z,18.60
2023-03-10T13:00:33.258Z,18.90
2023-03-10T13:02:59.906Z,19.40
2023-03-10T13:05:26.494Z,19.80
2023-03-10T13:07:53.086Z,19.60
2023-03-10T13:10:19.728Z,19.70
2023-03-10T13:12:46.485Z,19.50
2023-03-10T13:15:13.101Z,19.50
2023-03-10T13:17:39.687Z,20.10
2023-03-10T13:20:06.308Z,20.00
2023-03-10T13:22:32.943Z,20.30
2023-03-10T13:24:59.561Z,19.10
2023-03-10T13:27:26.209Z,19.60
2023-03-10T13:29:52.851Z,19.80
2023-03-10T13:32:19.485Z,20.50
2023-03-10T13:34:46.126Z,20.40
2023-03-10T13:37:12.742Z,20.80
2023-03-10T13:39:39.331Z,21.30
2023-03-10T13:42:05.928Z,21.50
2023-03-10T13:44:32.540Z,21.60
2023-03-10T13:46:59.151Z,21.80
2023-03-10T13:49:25.755Z,21.40
2023-03-10T13:51:52.379Z,21.20
2023-03-10T13:54:19.279Z,21.10
2023-03-10T13:56:45.897Z,20.30
2023-03-10T13:59:12.520Z,20.20
2023-03-10T14:01:39.172Z,19.70
2023-03-10T14:04:05.878Z,19.60
2023-03-10T14:06:32.606Z,19.80
2023-03-10T14:08:59.208Z,19.70
2023-03-10T14:11:25.842Z,19.50
2023-03-10T14:13:52.446Z,19.60
2023-03-10T14:16:19.120Z,19.40
2023-03-10T14:18:45.680Z,19.50
2023-03-10T14:21:12.277Z,19.60
2023-03-10T14:23:38.918Z,19.60
2023-03-10T14:26:05.470Z,19.40
2023-03-10T14:28:32.082Z,19.20
2023-03-10T14:30:58.848Z,18.70
2023-03-10T14:33:25.520Z,18.30
2023-03-10T14:35:52.121Z,18.00
2023-03-10T14:38:18.832Z,17.50
2023-03-10T14:40:45.404Z,17.00
2023-03-10T14:43:11.990Z,16.30
2023-03-10T14:45:41.082Z,15.20
2023-03-10T14:48:08.158Z,14.10
2023-03-10T14:50:34.840Z,14.00
2023-03-10T14:53:02.359Z,13.70
2023-03-10T14:55:28.917Z,13.40
2023-03-10T14:57:55.521Z,13.50
2023-03-10T15:00:22.143Z,13.80
2023-03-10T15:02:48.742Z,13.90
2023-03-10T15:05:15.320Z,13.50
2023-03-10T15:07:41.895Z,13.10
2023-03-10T15:10:11.636Z,13.30
2023-03-10T15:12:38.358Z,13.10
2023-03-10T15:15:04.934Z,13.70
2023-03-10T15:17:31.568Z,13.90
2023-03-10T15:19:58.171Z,14.00
2023-03-10T15:22:24.770Z,14.40
2023-03-10T15:24:51.442Z,14.40
2023-03-10T15:27:18.002Z,14.40
2023-03-10T15:29:44.583Z,13.90
2023-03-10T15:32:11.202Z,14.30
2023-03-10T15:34:37.870Z,14.20
2023-03-10T15:37:04.458Z,14.20
2023-03-10T15:39:32.772Z,14.30
2023-03-10T15:42:00.434Z,14.30
2023-03-10T15:44:27.064Z,14.40
2023-03-10T15:46:53.700Z,14.40
2023-03-10T15:49:20.307Z,14.40
2023-03-10T15:51:46.923Z,14.70
2023-03-10T15:54:13.492Z,14.80
2023-03-10T15:56:40.157Z,14.60
2023-03-10T15:59:06.897Z,14.50
2023-03-10T16:01:33.541Z,14.60
2023-03-10T16:04:00.196Z,15.10
2023-03-10T16:06:26.803Z,15.30
2023-03-10T16:08:53.389Z,15.50
2023-03-10T16:11:19.995Z,15.60
2023-03-10T16:13:46.576Z,15.10
2023-03-10T16:16:13.248Z,14.40
2023-03-10T16:18:39.823Z,14.20
2023-03-10T16:21:06.428Z,13.80
2023-03-10T16:23:32.986Z,13.50
2023-03-10T16:25:59.633Z,13.50
2023-03-10T16:28:26.332Z,13.60
2023-03-10T16:30:52.900Z,13.80
2023-03-10T16:33:19.512Z,13.70
2023-03-10T16:35:46.124Z,13.70
2023-03-10T16:38:12.812Z,14.10
2023-03-10T16:40:39.402Z,14.30
2023-03-10T16:43:05.990Z,14.50
2023-03-10T16:45:32.669Z,14.10
2023-03-10T16:47:59.320Z,14.20
2023-03-10T16:50:25.926Z,14.20
2023-03-10T16:52:52.528Z,13.50
2023-03-10T16:55:19.130Z,13.70
2023-03-10T16:57:45.916Z,13.90
2023-03-10T17:00:12.520Z,13.70
2023-03-10T17:02:39.123Z,13.70
2023-03-10T17:05:05.685Z,13.50
2023-03-10T17:07:33.627Z,13.30
2023-03-10T17:10:01.357Z,13.20
2023-03-10T17:12:27.968Z,12.80
2023-03-10T17:14:54.612Z,12.70
2023-03-10T17:17:21.236Z,12.90
2023-03-10T17:19:47.830Z,13.00
2023-03-10T17:22:14.504Z,12.80
2023-03-10T17:24:41.171Z,12.80
2023-03-10T17:27:07.833Z,12.40
2023-03-10T17:29:34.435Z,12.50
2023-03-10T17:32:01.246Z,12.60
2023-03-10T17:34:27.955Z,12.70
2023-03-10T17:36:54.535Z,12.50
2023-03-10T17:39:21.194Z,12.30
2023-03-10T17:41:47.809Z,12.30
2023-03-10T17:44:15.415Z,12.30
2023-03-10T17:46:42.084Z,12.00
2023-03-10T17:49:08.665Z,12.10
2023-03-10T17:51:35.300Z,12.00
2023-03-10T17:54:01.908Z,11.80
2023-03-10T17:56:28.573Z,11.80
2023-03-10T17:58:55.156Z,11.90
2023-03-10T18:01:21.790Z,12.00
2023-03-10T18:03:48.702Z,12.10
2023-03-10T18:06:15.382Z,11.80
2023-03-10T18:08:41.944Z,11.90
2023-03-10T18:11:08.594Z,12.00
2023-03-10T18:13:35.219Z,11.80
2023-03-10T18:16:01.817Z,11.70
2023-03-10T18:18:28.416Z,11.80
2023-03-10T18:20:55.012Z,11.80
2023-03-10T18:23:21.600Z,11.80
2023-03-10T18:25:48.192Z,11.70
2023-03-10T18:28:14.768Z,11.60
2023-03-10T18:30:41.432Z,11.20
2023-03-10T18:33:08.102Z,10.70
2023-03-10T18:35:34.666Z,10.80
2023-03-10T18:38:01.409Z,10.90
2023-03-10T18:40:27.979Z,11.00
2023-03-10T18:42:54.627Z,10.80
2023-03-10T18:45:21.186Z,10.50
2023-03-10T18:47:47.779Z,10.60
2023-03-10T18:50:14.330Z,10.40
2023-03-10T18:52:40.912Z,10.30
2023-03-10T18:55:07.831Z,10.30
2023-03-10T18:57:34.469Z,10.60
2023-03-10T19:00:01.248Z,10.70
2023-03-10T19:02:27.882Z,10.60
2023-03-10T19:04:54.485Z,10.70
2023-03-10T19:07:21.066Z,10.90
2023-03-10T19:09:47.891Z,10.70
2023-03-10T19:12:14.479Z,10.20
2023-03-10T19:14:41.230Z,10.00
2023-03-10T19:17:07.816Z,10.60
2023-03-10T19:19:34.431Z,10.90
2023-03-10T19:22:01.031Z,11.00
2023-03-10T19:24:27.593Z,11.20
2023-03-10T19:26:54.182Z,11.10
2023-03-10T19:29:20.783Z,10.70
2023-03-10T19:31:47.443Z,10.70
2023-03-10T19:34:14.014Z,10.90
2023-03-10T19:36:40.615Z,11.00
2023-03-10T19:39:07.202Z,10.50
2023-03-10T19:41:33.824Z,10.70
2023-03-10T19:44:00.426Z,10.90
2023-03-10T19:46:27.141Z,10.90
2023-03-10T19:48:54.317Z,11.10
2023-03-10T19:51:20.924Z,10.70
2023-03-10T19:53:47.490Z,11.00
2023-03-10T19:56:14.105Z,10.90
2023-03-10T19:58:40.674Z,10.90
2023-03-10T20:01:08.199Z,11.10
2023-03-10T20:03:34.940Z,10.30
2023-03-10T20:06:01.550Z,10.50
2023-03-10T20:08:28.134Z,10.30
2023-03-10T20:10:54.893Z,10.00
2023-03-10T20:13:21.496Z,9.60
2023-03-10T20:15:48.473Z,9.80
2023-03-10T20:18:15.426Z,10.20
2023-03-10T20:20:42.009Z,10.10
2023-03-10T20:23:08.657Z,10.20
2023-03-10T20:25:35.368Z,9.90
2023-03-10T20:28:01.941Z,10.20
2023-03-10T20:30:28.529Z,10.30
2023-03-10T20:32:55.107Z,10.20
2023-03-10T20:35:22.726Z,9.40
2023-03-10T20:37:50.461Z,9.60
2023-03-10T20:40:17.053Z,9.20
2023-03-10T20:42:43.694Z,9.10
2023-03-10T20:45:10.270Z,9.40
2023-03-10T20:47:36.869Z,9.70
2023-03-10T20:50:03.517Z,9.80
2023-03-10T20:52:30.154Z,9.90
2023-03-10T20:54:56.716Z,10.10
2023-03-10T20:57:23.464Z,10.00
2023-03-10T20:59:50.033Z,9.90
2023-03-10T21:02:16.594Z,9.80
2023-03-10T21:04:43.379Z,9.50
2023-03-10T21:07:09.974Z,9.70
2023-03-10T21:09:36.602Z,9.50
2023-03-10T21:12:03.199Z,9.60
2023-03-10T21:14:29.769Z,9.90
2023-03-10T21:16:56.377Z,10.00
2023-03-10T21:19:23.019Z,9.90
2023-03-10T21:21:49.609Z,9.50
2023-03-10T21:24:16.190Z,9.70
2023-03-10T21:26:42.781Z,9.80
2023-03-10T21:29:09.356Z,9.90
2023-03-10T21:31:35.958Z,9.90
2023-03-10T21:34:02.525Z,9.80
2023-03-10T21:36:29.119Z,9.70
2023-03-10T21:38:55.697Z,9.60
2023-03-10T21:41:22.264Z,9.80
2023-03-10T21:43:48.861Z,9.70
2023-03-10T21:46:15.624Z,9.10
2023-03-10T21:48:43.255Z,8.70
2023-03-10T21:51:09.956Z,8.90
2023-03-10T21:53:36.593Z,9.10
2023-03-10T21:56:03.171Z,9.50
2023-03-10T21:58:29.914Z,9.60
2023-03-10T22:00:56.548Z,9.80
2023-03-10T22:03:23.164Z,9.80
2023-03-10T22:05:49.768Z,9.70
2023-03-10T22:08:16.347Z,9.30
2023-03-10T22:10:43.010Z,9.20
2023-03-10T22:13:09.635Z,9.30
2023-03-10T22:15:36.226Z,9.00
2023-03-10T22:18:02.780Z,8.90
2023-03-10T22:20:29.362Z,9.20
2023-03-10T22:22:55.927Z,9.70
2023-03-10T22:25:22.520Z,9.90
2023-03-10T22:27:49.405Z,10.00
2023-03-10T22:30:16.006Z,10.10
2023-03-10T22:32:42.648Z,9.80
2023-03-10T22:35:09.229Z,9.90
2023-03-10T22:37:35.819Z,10.00
2023-03-10T22:40:02.433Z,10.00
2023-03-10T22:42:29.045Z,10.10
2023-03-10T22:44:55.638Z,10.00
2023-03-10T22:47:22.236Z,10.10
2023-03-10T22:49:48.809Z,10.10
2023-03-10T22:52:15.411Z,9.90
2023-03-10T22:54:41.994Z,10.00
2023-03-10T22:57:08.638Z,10.00
2023-03-10T22:59:35.246Z,9.90
2023-03-10T23:02:01.934Z,10.10
2023-03-10T23:04:28.600Z,10.10
2023-03-10T23:06:55.197Z,10.30
2023-03-10T23:09:21.927Z,10.30
2023-03-10T23:11:48.860Z,9.70
2023-03-10T23:14:15.591Z,9.90
2023-03-10T23:16:42.224Z,9.70
2023-03-10T23:19:08.820Z,9.90
2023-03-10T23:21:35.488Z,10.00
2023-03-10T23:24:02.104Z,10.00
2023-03-10T23:26:28.678Z,9.10
2023-03-10T23:28:55.272Z,9.00
2023-03-10T23:31:21.869Z,8.90
2023-03-10T23:33:48.566Z,9.10
2023-03-10T23:36:15.236Z,9.50
2023-03-10T23:38:41.812Z,10.00
2023-03-10T23:41:08.548Z,10.00
2023-03-10T23:43:35.106Z,10.10
2023-03-10T23:46:01.747Z,10.20
2023-03-10T23:48:28.403Z,10.30
2023-03-10T23:50:54.989Z,10.20
2023-03-10T23:53:21.552Z,9.40
2023-03-10T23:55:48.187Z,9.60
2023-03-10T23:58:14.857Z,9.70
